^^
Datos históricos de la estación: Murcia-Puente Tocinos
Diario Informe para Septiembre 7, 2019 Unidades:  Ingés    Métrico   Ambas
Diario Semanal Mensual Anual
  Máxima: Mínima: Promedio:
Temperatura: 102.2 °F 80.1 °F 89.1 °F
Punto de rocio: 69.4 °F 54.5 °F 63 °F
Humedad: 67% 21% 46%
Velocidad viento: 16.3mph 0mph 6mph
Racha viento: 29.9mph - -
Viento- - SE
Presión: 29.9 in 29.7 in -
Precipitación: 0 in    
 
 
Tabla de datos para Septiembre 7, 2019
Hora Temperatura Punto de rocio Presión Viento Velocidad viento Racha viento Humedad Intensidad lluvia(por hora) Nubes
00:04 82.8 °F 66.6 °F 29.9 in NNE 6.2 mph 3.6 mph 58% 0 in
00:09 82.9 °F 65.1 °F 29.9 in Este 3.6 mph 5.8 mph 55% 0 in
00:14 83.7 °F 65.3 °F 29.9 in NE 3.6 mph 4.6 mph 54% 0 in
00:19 83.8 °F 66.6 °F 29.9 in ONO 3.1 mph 9.2 mph 56% 0 in
00:24 83.3 °F 66.9 °F 29.9 in NO 3.1 mph 12.7 mph 58% 0 in
00:29 82.9 °F 67.1 °F 29.9 in North 7.4 mph 7.6 mph 59% 0 in
00:34 82.8 °F 66.9 °F 29.9 in Oeste 7.4 mph 9.2 mph 59% 0 in
00:39 82.6 °F 66.7 °F 29.9 in NO 6.4 mph 9.2 mph 59% 0 in
00:44 82.4 °F 66.6 °F 29.9 in NO 6.4 mph 6.9 mph 59% 0 in
00:49 82.4 °F 67.1 °F 29.9 in North 5.2 mph 5.8 mph 60% 0 in
00:54 82.4 °F 66.6 °F 29.9 in NNE 5.2 mph 5.9 mph 59% 0 in
00:59 82.4 °F 66.6 °F 29.9 in North 4 mph 4.6 mph 59% 0 in
01:04 82.4 °F 66.6 °F 29.9 in NNO 4 mph 5.8 mph 59% 0 in
01:09 82.4 °F 66.6 °F 29.9 in ONO 3.6 mph 6.9 mph 59% 0 in
01:14 82.2 °F 66.9 °F 29.9 in NNE 3.6 mph 3.5 mph 60% 0 in
01:19 82.2 °F 67.5 °F 29.9 in Oeste 3.6 mph 5.8 mph 61% 0 in
01:24 82 °F 68.2 °F 29.9 in Oeste 3.6 mph 10.4 mph 63% 0 in
01:29 81.9 °F 68.9 °F 29.9 in NO 6.2 mph 6.9 mph 65% 0 in
01:34 81.9 °F 69.4 °F 29.9 in NE 6.2 mph 5.8 mph 66% 0 in
01:39 81.9 °F 69.4 °F 29.9 in NE 3.6 mph 5.2 mph 66% 0 in
01:44 81.9 °F 69.4 °F 29.9 in ENE 3.6 mph 9.2 mph 66% 0 in
01:49 81.9 °F 69.4 °F 29.9 in NE 5.9 mph 8.1 mph 66% 0 in
01:54 81.7 °F 69.3 °F 29.9 in ENE 5.9 mph 7.6 mph 66% 0 in
01:59 81.3 °F 68.9 °F 29.9 in ESE 5.2 mph 8.1 mph 66% 0 in
02:04 81.1 °F 68.7 °F 29.9 in ENE 5.2 mph 7.6 mph 66% 0 in
02:09 81.1 °F 68.7 °F 29.9 in NNE 4.7 mph 6.9 mph 66% 0 in
02:14 81.1 °F 68.7 °F 29.9 in NNE 4.7 mph 9.2 mph 66% 0 in
02:19 81.1 °F 69.1 °F 29.8 in NE 7.4 mph 16.8 mph 67% 0 in
02:24 81.1 °F 69.1 °F 29.8 in NE 7.4 mph 16.1 mph 67% 0 in
02:29 81.1 °F 68.7 °F 29.8 in NE 11.8 mph 13.8 mph 66% 0 in
02:34 81 °F 68.5 °F 29.9 in NE 11.8 mph 15 mph 66% 0 in
02:39 81 °F 68.2 °F 29.9 in NNE 10 mph 13.8 mph 65% 0 in
02:44 81.1 °F 68.4 °F 29.9 in NE 10 mph 10.4 mph 65% 0 in
02:49 81.1 °F 67.8 °F 29.8 in NE 8.7 mph 9.2 mph 64% 0 in
02:54 81.1 °F 67.8 °F 29.8 in NE 8.7 mph 12.7 mph 64% 0 in
02:59 81.1 °F 67.3 °F 29.8 in North 7.4 mph 11.5 mph 63% 0 in
03:04 81.1 °F 67.8 °F 29.8 in NNE 7.4 mph 8.1 mph 64% 0 in
03:09 81.1 °F 67.8 °F 29.8 in NNE 5.9 mph 9.2 mph 64% 0 in
03:14 81.1 °F 67.8 °F 29.8 in ONO 5.9 mph 9.2 mph 64% 0 in
03:19 81.1 °F 67.8 °F 29.8 in North 5.4 mph 8.1 mph 64% 0 in
03:24 81.1 °F 67.8 °F 29.8 in NO 5.4 mph 6.9 mph 64% 0 in
03:29 81.1 °F 68.4 °F 29.8 in Oeste 4.3 mph 6.4 mph 65% 0 in
03:34 81.1 °F 68.4 °F 29.9 in NE 4.3 mph 3.5 mph 65% 0 in
03:39 81.1 °F 68.4 °F 29.9 in NE 3.1 mph 5.8 mph 65% 0 in
03:44 81.1 °F 68.4 °F 29.9 in NNE 3.1 mph 4.6 mph 65% 0 in
03:49 81.1 °F 68.4 °F 29.8 in ONO 2.9 mph 4 mph 65% 0 in
03:54 81.1 °F 68.7 °F 29.8 in ONO 2.9 mph 4 mph 66% 0 in
03:59 81.1 °F 68.7 °F 29.8 in ONO 2.4 mph 1.2 mph 66% 0 in
04:04 81.1 °F 68.7 °F 29.8 in North 2.4 mph 4.6 mph 66% 0 in
04:09 81 °F 69.1 °F 29.8 in NNE 2.9 mph 5.8 mph 67% 0 in
04:14 80.8 °F 68.4 °F 29.8 in NNE 2.9 mph 7.4 mph 66% 0 in
04:19 80.6 °F 68.2 °F 29.8 in NNE 4.7 mph 4.6 mph 66% 0 in
04:24 80.6 °F 68.5 °F 29.8 in North 4.7 mph 4.6 mph 67% 0 in
04:29 80.6 °F 68.5 °F 29.8 in NO 2.9 mph 2.4 mph 67% 0 in
04:34 80.6 °F 68.5 °F 29.8 in NO 2.9 mph 3.5 mph 67% 0 in
04:39 80.6 °F 68.5 °F 29.8 in Oeste 2 mph 4.6 mph 67% 0 in
04:44 80.6 °F 68.5 °F 29.8 in NE 2 mph 5.8 mph 67% 0 in
04:49 80.8 °F 68.7 °F 29.8 in ESE 3.1 mph 6.9 mph 67% 0 in
04:54 80.8 °F 68.4 °F 29.8 in Este 3.1 mph 8.1 mph 66% 0 in
04:59 80.4 °F 68 °F 29.8 in SE 4.7 mph 5.4 mph 66% 0 in
05:04 80.4 °F 68.5 °F 29.8 in Este 4.7 mph 8.1 mph 67% 0 in
05:09 80.4 °F 68.5 °F 29.8 in NE 4 mph 7.6 mph 67% 0 in
05:14 80.2 °F 68.4 °F 29.8 in NE 4 mph 11.5 mph 67% 0 in
05:19 80.2 °F 67.8 °F 29.8 in ENE 6.9 mph 15 mph 66% 0 in
05:24 80.1 °F 67.6 °F 29.8 in NE 6.9 mph 10.4 mph 66% 0 in
05:29 80.1 °F 67.6 °F 29.8 in NE 8.7 mph 11.5 mph 66% 0 in
05:34 80.1 °F 67.6 °F 29.8 in NNE 8.7 mph 8.1 mph 66% 0 in
05:39 80.1 °F 67.3 °F 29.8 in NNO 6.2 mph 9.2 mph 65% 0 in
05:44 80.2 °F 66.9 °F 29.8 in OSO 6.2 mph 9.2 mph 64% 0 in
05:49 80.2 °F 66.6 °F 29.8 in NO 5.9 mph 9.2 mph 63% 0 in
05:54 80.8 °F 65.1 °F 29.8 in Este 5.9 mph 10.4 mph 59% 0 in
05:59 81.5 °F 65.3 °F 29.8 in Este 5.9 mph 10.4 mph 58% 0 in
06:04 81.7 °F 66 °F 29.8 in NNE 5.9 mph 10.4 mph 59% 0 in
06:09 81.3 °F 65.7 °F 29.8 in NE 6.4 mph 11.5 mph 59% 0 in
06:14 81.3 °F 65.1 °F 29.8 in NE 6.4 mph 9.2 mph 58% 0 in
06:19 81.5 °F 65.3 °F 29.8 in NE 6.2 mph 6.9 mph 58% 0 in
06:24 81.7 °F 64.9 °F 29.8 in North 6.2 mph 6.9 mph 57% 0 in
06:29 81.7 °F 64.9 °F 29.8 in Sur 4.3 mph 4.6 mph 57% 0 in
06:34 82 °F 64.2 °F 29.8 in SE 4.3 mph 5.8 mph 55% 0 in
06:39 83.5 °F 63 °F 29.8 in SE 4 mph 12.7 mph 50% 0 in
06:44 83.8 °F 64.9 °F 29.8 in North 4 mph 10.4 mph 53% 0 in
06:49 82.9 °F 65.1 °F 29.8 in NNO 5.4 mph 4.6 mph 55% 0 in
06:54 82.2 °F 65.5 °F 29.8 in North 5.4 mph 5.9 mph 57% 0 in
06:59 81.7 °F 65.5 °F 29.8 in NE 4 mph 5.2 mph 58% 0 in
07:04 81.5 °F 65.3 °F 29.8 in ENE 4 mph 2.3 mph 58% 0 in
07:09 81.3 °F 65.7 °F 29.8 in NNE 2.4 mph 3.6 mph 59% 0 in
07:14 81.1 °F 65.8 °F 29.8 in NO 2.4 mph 4.6 mph 60% 0 in
07:19 80.8 °F 66 °F 29.8 in NO 2.9 mph 4.6 mph 61% 0 in
07:24 80.4 °F 66.2 °F 29.8 in NO 2.9 mph 4.7 mph 62% 0 in
07:29 80.2 °F 66.6 °F 29.8 in NNE 3.1 mph 3.5 mph 63% 0 in
07:34 80.1 °F 66.4 °F 29.8 in North 3.1 mph 5.8 mph 63% 0 in
07:39 80.1 °F 66.4 °F 29.8 in North 1.8 mph 2.4 mph 63% 0 in
07:44 80.1 °F 66.4 °F 29.8 in NNE 1.8 mph 4.6 mph 63% 0 in
07:49 80.2 °F 66.6 °F 29.8 in NNE 1.8 mph 2.3 mph 63% 0 in
07:54 80.2 °F 66.6 °F 29.8 in NNE 1.8 mph 2.3 mph 63% 0 in
07:59 80.2 °F 66.9 °F 29.8 in NNE 1.8 mph 2.3 mph 64% 0 in
08:04 80.2 °F 66.9 °F 29.8 in NNE 1.8 mph 2.3 mph 64% 0 in
08:09 80.2 °F 66.9 °F 29.8 in NNE 1.4 mph   64% 0 in
08:14 80.4 °F 67.6 °F 29.8 in NNE 1.4 mph   65% 0 in
08:19 80.4 °F 67.1 °F 29.8 in Calm     64% 0 in
08:24 80.6 °F 67.3 °F 29.8 in Calm   2.9 mph 64% 0 in
08:29 80.8 °F 67.5 °F 29.8 in NNE 1.4 mph 2.3 mph 64% 0 in
08:34 81 °F 67.3 °F 29.8 in NNE 1.4 mph 2.3 mph 63% 0 in
08:39 81.1 °F 67.3 °F 29.8 in NNE 1.4 mph 3.5 mph 63% 0 in
08:44 81.3 °F 67.5 °F 29.8 in NNE 1.4 mph 2.4 mph 63% 0 in
08:49 81.5 °F 67.6 °F 29.8 in NNE 1.8 mph 2.3 mph 63% 0 in
08:54 81.9 °F 68 °F 29.8 in NNE 1.8 mph   63% 0 in
08:59 82.2 °F 67.5 °F 29.8 in Calm     61% 0 in
09:04 82.8 °F 66.9 °F 29.8 in Calm   3.5 mph 59% 0 in
09:09 83.5 °F 66.6 °F 29.8 in Sur 1.4 mph 4.6 mph 57% 0 in
09:14 83.7 °F 66.4 °F 29.8 in SO 1.4 mph 2.9 mph 56% 0 in
09:19 83.8 °F 66.6 °F 29.8 in SO 2.4 mph 3.5 mph 56% 0 in
09:24 84.2 °F 66.7 °F 29.8 in SE 2.4 mph 4.6 mph 56% 0 in
09:29 84.6 °F 67.1 °F 29.8 in ESE 1.8 mph 2.4 mph 56% 0 in
09:34 84.9 °F 66.9 °F 29.9 in SSO 1.8 mph 2 mph 55% 0 in
09:39 85.1 °F 66.6 °F 29.9 in OSO 1.8 mph 3.1 mph 54% 0 in
09:44 85.3 °F 67.3 °F 29.9 in OSO 1.8 mph   55% 0 in
09:49 85.5 °F 66.4 °F 29.9 in NE 1.4 mph 2.3 mph 53% 0 in
09:54 85.6 °F 67.1 °F 29.9 in ENE 1.4 mph 3.5 mph 54% 0 in
09:59 85.8 °F 67.3 °F 29.9 in ENE 1.4 mph 2 mph 54% 0 in
10:04 86 °F 66.9 °F 29.8 in NO 1.4 mph 3.5 mph 53% 0 in
10:09 85.8 °F 66.7 °F 29.8 in NE 2 mph 4.6 mph 53% 0 in
10:14 85.8 °F 67.3 °F 29.8 in NNE 2 mph 4.7 mph 54% 0 in
10:19 85.6 °F 66 °F 29.8 in NE 2.9 mph 4.6 mph 52% 0 in
10:24 85.6 °F 67.1 °F 29.8 in NE 2.9 mph 4 mph 54% 0 in
10:29 85.8 °F 67.3 °F 29.8 in NE 2.4 mph 4.3 mph 54% 0 in
10:34 86.2 °F 66.9 °F 29.8 in North 2.4 mph 4.7 mph 53% 0 in
10:39 86.4 °F 67.3 °F 29.8 in NE 2.9 mph 4.6 mph 53% 0 in
10:44 86.5 °F 67.5 °F 29.8 in NE 2.9 mph 4.6 mph 53% 0 in
10:49 86.9 °F 66.6 °F 29.9 in NE 2.9 mph 3.5 mph 51% 0 in
10:54 87.3 °F 66.9 °F 29.9 in NE 2.9 mph 6.9 mph 51% 0 in
10:59 87.6 °F 67.3 °F 29.9 in NE 3.1 mph 5.2 mph 51% 0 in
11:04 88 °F 66.9 °F 29.8 in SE 3.1 mph 5.8 mph 50% 0 in
11:09 88.3 °F 66.7 °F 29.8 in NNE 4 mph 5.8 mph 49% 0 in
11:14 88.7 °F 66.6 °F 29.8 in NE 4 mph 5.8 mph 48% 0 in
11:19 89.1 °F 66.7 °F 29.8 in NE 4 mph 4.6 mph 48% 0 in
11:24 89.2 °F 66.4 °F 29.8 in North 4 mph 5.8 mph 47% 0 in
11:29 89.4 °F 65.8 °F 29.8 in NNE 4.3 mph 9.2 mph 46% 0 in
11:34 89.6 °F 64 °F 29.8 in NNE 4.3 mph 8.1 mph 43% 0 in
11:39 90.1 °F 64 °F 29.8 in NNE 6.2 mph 9.2 mph 42% 0 in
11:44 90.7 °F 64.4 °F 29.8 in North 6.2 mph 7.6 mph 42% 0 in
11:49 91.2 °F 63.5 °F 29.8 in NNE 5.2 mph 8.1 mph 40% 0 in
11:54 91.8 °F 63.3 °F 29.8 in North 5.2 mph 8.1 mph 39% 0 in
11:59 92.1 °F 63.7 °F 29.8 in NE 5.9 mph 6.2 mph 39% 0 in
12:04 92.5 °F 62.4 °F 29.8 in NE 5.9 mph 6.9 mph 37% 0 in
12:09 92.7 °F 62.6 °F 29.8 in NNE 5.2 mph 7.4 mph 37% 0 in
12:14 92.8 °F 62.8 °F 29.8 in NNE 5.2 mph 9.2 mph 37% 0 in
12:19 93.2 °F 63.1 °F 29.8 in North 5.2 mph 8.1 mph 37% 0 in
12:24 93.7 °F 63.5 °F 29.8 in NNE 5.2 mph 8.1 mph 37% 0 in
12:29 94.5 °F 64.2 °F 29.8 in NNE 5.2 mph 8.1 mph 37% 0 in
12:34 94.8 °F 63 °F 29.8 in North 5.2 mph 4.6 mph 35% 0 in
12:39 95.4 °F 62.4 °F 29.8 in NE 5.4 mph 8.1 mph 34% 0 in
12:44 95.5 °F 61.9 °F 29.8 in NE 5.4 mph 7.6 mph 33% 0 in
12:49 95.7 °F 61.2 °F 29.8 in NE 5.2 mph 8.1 mph 32% 0 in
12:54 95.9 °F 60.4 °F 29.8 in NNE 5.2 mph 8.1 mph 31% 0 in
12:59 96.4 °F 61 °F 29.8 in North 3.1 mph 7.6 mph 31% 0 in
13:04 96.6 °F 61 °F 29.8 in North 3.1 mph 6.9 mph 31% 0 in
13:09 97.3 °F 61.5 °F 29.8 in NNO 3.6 mph 5.4 mph 31% 0 in
13:14 97.9 °F 61.2 °F 29.8 in NNE 3.6 mph 6.9 mph 30% 0 in
13:19 98.1 °F 61.3 °F 29.8 in NNO 4.7 mph 6.9 mph 30% 0 in
13:24 98.2 °F 59.5 °F 29.8 in ONO 4.7 mph 10.4 mph 28% 0 in
13:29 98.2 °F 59.5 °F 29.8 in NE 5.4 mph 6.2 mph 28% 0 in
13:34 98.4 °F 60.6 °F 29.8 in ESE 5.4 mph 4.6 mph 29% 0 in
13:39 99 °F 57 °F 29.8 in SSE 5.2 mph 12.7 mph 25% 0 in
13:44 99.3 °F 57.4 °F 29.8 in Sur 5.2 mph 17.3 mph 25% 0 in
13:49 99.7 °F 56.5 °F 29.8 in SSO 11.8 mph 17.3 mph 24% 0 in
13:54 99.7 °F 56.5 °F 29.8 in SSE 11.8 mph 16.1 mph 24% 0 in
13:59 99.5 °F 56.3 °F 29.8 in SSE 10 mph 17.3 mph 24% 0 in
14:04 99.7 °F 56.5 °F 29.8 in SSE 10 mph 13.8 mph 24% 0 in
14:09 99.9 °F 56.7 °F 29.8 in Sur 9.2 mph 13.8 mph 24% 0 in
14:14 100 °F 55.6 °F 29.8 in Sur 9.2 mph 16.1 mph 23% 0 in
14:19 100.2 °F 55.8 °F 29.8 in SE 10 mph 13.8 mph 23% 0 in
14:24 100.4 °F 55.9 °F 29.8 in SSO 10 mph 20.7 mph 23% 0 in
14:29 100.4 °F 55.9 °F 29.8 in Sur 11.4 mph 15.6 mph 23% 0 in
14:34 100.2 °F 55.8 °F 29.8 in Sur 11.4 mph 18.1 mph 23% 0 in
14:39 100.2 °F 55.8 °F 29.8 in Sur 13.7 mph 18.4 mph 23% 0 in
14:44 100.6 °F 55.9 °F 29.8 in SSO 13.7 mph 16.1 mph 23% 0 in
14:49 100.9 °F 56.3 °F 29.8 in Sur 8.7 mph 13.8 mph 23% 0 in
14:54 101.5 °F 55.6 °F 29.8 in SO 8.7 mph 15.9 mph 22% 0 in
14:59 101.8 °F 55.9 °F 29.8 in Sur 9.2 mph 13.7 mph 22% 0 in
15:04 102.2 °F 54.9 °F 29.8 in SO 9.2 mph 13.8 mph 21% 0 in
15:09 102 °F 54.7 °F 29.8 in SSE 9.2 mph 19.7 mph 21% 0 in
15:14 101.8 °F 55.9 °F 29.8 in SSE 9.2 mph 18.4 mph 22% 0 in
15:19 101.7 °F 55.8 °F 29.8 in Sur 11.2 mph 11.2 mph 22% 0 in
15:24 101.5 °F 55.6 °F 29.8 in Sur 11.2 mph 13.8 mph 22% 0 in
15:29 101.3 °F 55.4 °F 29.8 in Sur 8.7 mph 13.8 mph 22% 0 in
15:34 101.1 °F 55.2 °F 29.8 in Sur 8.7 mph 15 mph 22% 0 in
15:39 101.1 °F 55.2 °F 29.8 in SSO 9.7 mph 13.5 mph 22% 0 in
15:44 101.3 °F 55.4 °F 29.8 in Sur 9.7 mph 17.3 mph 22% 0 in
15:49 101.3 °F 55.4 °F 29.8 in SE 9.7 mph 19.6 mph 22% 0 in
15:54 101.1 °F 55.2 °F 29.8 in SSE 9.7 mph 16.1 mph 22% 0 in
15:59 100.9 °F 55 °F 29.8 in SSO 11.2 mph 17.5 mph 22% 0 in
16:04 101.1 °F 56.5 °F 29.8 in SSO 11.2 mph 16.1 mph 23% 0 in
16:09 101.1 °F 55.2 °F 29.8 in Sur 9.7 mph 12.3 mph 22% 0 in
16:14 101.1 °F 55.2 °F 29.8 in SSO 9.7 mph 19.6 mph 22% 0 in
16:19 100.9 °F 55 °F 29.8 in Sur 10.2 mph 9.2 mph 22% 0 in
16:24 100.8 °F 55 °F 29.8 in SSO 10.2 mph 11.5 mph 22% 0 in
16:29 100.8 °F 55 °F 29.8 in Sur 8.7 mph 16.1 mph 22% 0 in
16:34 100.6 °F 54.9 °F 29.8 in SSO 8.7 mph 15 mph 22% 0 in
16:39 100.6 °F 54.9 °F 29.8 in SE 11.4 mph 18.4 mph 22% 0 in
16:44 100.2 °F 55.8 °F 29.8 in SSE 11.4 mph 19.6 mph 23% 0 in
16:49 100.2 °F 54.5 °F 29.8 in Sur 13.5 mph 25.3 mph 22% 0 in
16:54 99.9 °F 55.4 °F 29.8 in SE 13.5 mph 25.3 mph 23% 0 in
16:59 100 °F 55.6 °F 29.8 in Sur 16.3 mph 27.6 mph 23% 0 in
17:04 100.2 °F 54.5 °F 29.7 in Sur 16.3 mph 29.9 mph 22% 0 in
17:09 100 °F 55.6 °F 29.7 in SSE 15.2 mph 19.6 mph 23% 0 in
17:14 100 °F 55.6 °F 29.7 in SO 15.2 mph 20.7 mph 23% 0 in
17:19 100 °F 55.6 °F 29.7 in Sur 12.3 mph 17.3 mph 23% 0 in
17:24 100 °F 55.6 °F 29.7 in Sur 12.3 mph 23 mph 23% 0 in
17:29 100 °F 55.6 °F 29.7 in SSO 15.6 mph 23 mph 23% 0 in
17:34 100 °F 55.6 °F 29.7 in Sur 15.6 mph 24.6 mph 23% 0 in
17:39 99.9 °F 55.4 °F 29.7 in SSE 16.3 mph 24.2 mph 23% 0 in
17:44 99.9 °F 55.4 °F 29.7 in SO 16.3 mph 15.6 mph 23% 0 in
17:49 99.9 °F 55.4 °F 29.7 in SSE 14 mph 15 mph 23% 0 in
17:54 100 °F 55.6 °F 29.7 in Sur 14 mph 20.7 mph 23% 0 in
17:59 100.2 °F 55.8 °F 29.7 in SE 11.8 mph 10.4 mph 23% 0 in
18:04 100.8 °F 56.1 °F 29.7 in SSE 11.8 mph 13.8 mph 23% 0 in
18:09 100.4 °F 54.7 °F 29.7 in SSE 10 mph 16.1 mph 22% 0 in
18:14 100.4 °F 55.9 °F 29.7 in SE 10 mph 12.7 mph 23% 0 in
18:19 100.2 °F 55.8 °F 29.7 in SE 8.7 mph 13.8 mph 23% 0 in
18:24 99.9 °F 55.4 °F 29.7 in SSE 8.7 mph 17.3 mph 23% 0 in
18:29 99.7 °F 55.2 °F 29.7 in Sur 9.7 mph 13.7 mph 23% 0 in
18:34 99.3 °F 56.1 °F 29.7 in SE 9.7 mph 9.2 mph 24% 0 in
18:39 99.1 °F 55.9 °F 29.7 in SSE 9.7 mph 18.4 mph 24% 0 in
18:44 99 °F 55.9 °F 29.7 in SSO 9.7 mph 15 mph 24% 0 in
18:49 98.8 °F 55.8 °F 29.7 in SE 9.2 mph 12.7 mph 24% 0 in
18:54 98.6 °F 55.6 °F 29.7 in Sur 9.2 mph 8.1 mph 24% 0 in
18:59 98.4 °F 56.5 °F 29.7 in SE 6.2 mph 11.5 mph 25% 0 in
19:04 98.4 °F 56.5 °F 29.7 in Este 6.2 mph 6.9 mph 25% 0 in
19:09 98.2 °F 58.5 °F 29.7 in ESE 6.4 mph 10.4 mph 27% 0 in
19:14 97.9 °F 58.3 °F 29.7 in Este 6.4 mph 12.7 mph 27% 0 in
19:19 97.5 °F 57.9 °F 29.7 in SE 7.6 mph 8.1 mph 27% 0 in
19:24 97.3 °F 58.8 °F 29.7 in ESE 7.6 mph 8.5 mph 28% 0 in
19:29 97.2 °F 58.6 °F 29.7 in Este 4.7 mph 8.1 mph 28% 0 in
19:34 96.6 °F 59.2 °F 29.7 in Este 4.7 mph 9.2 mph 29% 0 in
19:39 96.3 °F 58.8 °F 29.7 in ESE 6.2 mph 10.4 mph 29% 0 in
19:44 95.7 °F 58.5 °F 29.7 in ESE 6.2 mph 10 mph 29% 0 in
19:49 95.5 °F 59.2 °F 29.7 in ESE 6.9 mph 9.2 mph 30% 0 in
19:54 95.4 °F 59 °F 29.7 in SE 6.9 mph 15.9 mph 30% 0 in
19:59 95 °F 58.6 °F 29.7 in SSE 10.2 mph 13.8 mph 30% 0 in
20:04 95 °F 58.6 °F 29.7 in Sur 10.2 mph 10.2 mph 30% 0 in
20:09 94.8 °F 58.6 °F 29.7 in SSE 9.2 mph 16.1 mph 30% 0 in
20:14 94.3 °F 59.9 °F 29.7 in Sur 9.2 mph 25.3 mph 32% 0 in
20:19 92.8 °F 60.3 °F 29.7 in SSE 11.2 mph 22.5 mph 34% 0 in
20:24 91.8 °F 61 °F 29.7 in ESE 11.2 mph 13.8 mph 36% 0 in
20:29 91 °F 60.4 °F 29.7 in SE 11.4 mph 12.7 mph 36% 0 in
20:34 91 °F 61.2 °F 29.7 in NE 11.4 mph 3.5 mph 37% 0 in
20:39 90.9 °F 61 °F 29.7 in NO 4.3 mph 6.9 mph 37% 0 in
20:44 90.7 °F 61.5 °F 29.7 in NNE 4.3 mph 6.9 mph 38% 0 in
20:49 90.1 °F 61.2 °F 29.7 in NE 5.2 mph 10.4 mph 38% 0 in
20:54 90 °F 61.7 °F 29.7 in NE 5.2 mph 6.9 mph 39% 0 in
20:59 90 °F 61 °F 29.7 in ENE 4 mph 3.5 mph 38% 0 in
21:04 90 °F 61.7 °F 29.7 in ENE 4 mph   39% 0 in
21:09 90 °F 61.7 °F 29.7 in Calm   1.8 mph 39% 0 in
21:14 90 °F 61 °F 29.7 in Calm   4.6 mph 38% 0 in
21:19 89.8 °F 61.5 °F 29.7 in NO 2 mph 4.6 mph 39% 0 in
21:24 89.4 °F 61.2 °F 29.7 in NNE 2 mph 5.8 mph 39% 0 in
21:29 89.2 °F 61.9 °F 29.7 in NNO 3.6 mph 3.5 mph 40% 0 in
21:34 88.9 °F 61.3 °F 29.7 in NE 3.6 mph 5.8 mph 40% 0 in
21:39 88.5 °F 61.9 °F 29.7 in NE 3.6 mph 4.6 mph 41% 0 in
21:44 88.5 °F 61.9 °F 29.7 in North 3.6 mph 3.5 mph 41% 0 in
21:49 88.3 °F 61.7 °F 29.7 in NNO 2.4 mph 6.9 mph 41% 0 in
21:54 88 °F 62.1 °F 29.7 in ENE 2.4 mph 5.8 mph 42% 0 in
21:59 87.4 °F 61.5 °F 29.7 in NNE 3.6 mph 4.6 mph 42% 0 in
22:04 87.3 °F 61.3 °F 29.7 in NNE 3.6 mph 4.6 mph 42% 0 in
22:09 87.1 °F 61.9 °F 29.7 in ESE 4 mph 4.6 mph 43% 0 in
22:14 86.9 °F 61.7 °F 29.7 in ESE 4 mph 2.3 mph 43% 0 in
22:19 86.7 °F 61.5 °F 29.8 in ENE 2.4 mph 2.3 mph 43% 0 in
22:24 86.7 °F 61.5 °F 29.8 in NE 2.4 mph 4.6 mph 43% 0 in
22:29 86.5 °F 62.1 °F 29.8 in NE 2.4 mph 3.5 mph 44% 0 in
22:34 86.4 °F 61.9 °F 29.8 in ENE 2.4 mph 5.9 mph 44% 0 in
22:39 86.2 °F 62.2 °F 29.8 in NE 4.3 mph 8.1 mph 45% 0 in
22:44 85.8 °F 62.1 °F 29.8 in ENE 4.3 mph 6.9 mph 45% 0 in
22:49 85.8 °F 62.6 °F 29.8 in NNE 4.3 mph 8.1 mph 46% 0 in
22:54 85.5 °F 62.2 °F 29.8 in NNO 4.3 mph 5.8 mph 46% 0 in
22:59 85.3 °F 62.8 °F 29.8 in Este 4.3 mph 4.6 mph 47% 0 in
23:04 84.9 °F 63 °F 29.8 in NNO 4.3 mph 9.2 mph 48% 0 in
23:09 84.7 °F 64.6 °F 29.8 in NNE 5.2 mph 9.2 mph 51% 0 in
23:14 84.4 °F 65.8 °F 29.8 in NE 5.2 mph 10.4 mph 54% 0 in
23:19 83.8 °F 65.8 °F 29.8 in North 6.9 mph 11.5 mph 55% 0 in
23:24 83.7 °F 66.4 °F 29.8 in NE 6.9 mph 12.7 mph 56% 0 in
23:29 83.5 °F 66 °F 29.8 in NE 8.1 mph 10.4 mph 56% 0 in
23:34 83.5 °F 66 °F 29.8 in NNE 8.1 mph 13.8 mph 56% 0 in
23:39 83.7 °F 65.8 °F 29.8 in NE 10.2 mph 17.3 mph 55% 0 in
23:44 83.8 °F 64.2 °F 29.8 in Este 10.2 mph 9.2 mph 52% 0 in
23:49 84 °F 63.9 °F 29.8 in NO 5.9 mph 5.8 mph 51% 0 in
23:54 84.2 °F 63.5 °F 29.8 in Este 5.9 mph 8.1 mph 50% 0 in
23:59 84.4 °F 62.4 °F 29.8 in NE 4.7 mph 9.2 mph 48% 0 in
Murcia-Puente Tocinos, España
Compliments of Weather Underground - 3 mb

La estación de MeteoMurcia.com, publica sus datos en los siguientes proyectos:

Weather Underground PWS IMURCIAP2 Meteoclimatic www.awekas.at

W3Counter
Web Analytics